Time;durP1;ratioP1;P1;durP2;ratioP2;P2;SDS_P1;SDS_P2;PMS_P1;PMS_P2;Temp;Humidity;BMP_temperature;BMP_pressure;BME280_temperature;BME280_humidity;BME280_pressure;Samples;Min_cycle;Max_cycle;Signal;HPM_P1;HPM_P2
2022/09/28 00:00:18;;;;;;;;;;;;;;;12.72;73.59;99206.25;5085976;28;20375;-75
2022/09/28 00:02:44;;;;;;;;;;;;;;;12.89;72.97;99208.28;5072854;28;19928;-75
2022/09/28 00:05:11;;;;;;;;;;;;;;;12.59;73.45;99211.72;5061793;28;20466;-75
2022/09/28 00:07:37;;;;;;;;;;;;;;;12.54;74.07;99206.84;5064851;28;19963;-75
2022/09/28 00:10:04;;;;;;;;;;;;;;;12.48;74.00;99202.09;5064312;28;19978;-75
2022/09/28 00:12:30;;;;;;;;;;;;;;;12.71;73.14;99205.44;5062648;28;19928;-75
2022/09/28 00:14:57;;;;;;;;;;;;;;;12.41;74.56;99197.50;5063491;28;19924;-75
2022/09/28 00:17:25;;;;;;;;;;;;;;;12.36;74.63;99203.13;5062654;28;19924;-75
2022/09/28 00:19:51;;;;;;;;;;;;;;;12.11;76.39;99195.59;5063013;28;20462;-75
2022/09/28 00:22:18;;;;;;;;;;;;;;;11.94;77.29;99202.22;5064621;28;20441;-75
2022/09/28 00:24:44;;;;;;;;;;;;;;;11.90;77.69;99197.38;5062941;28;19935;-75
2022/09/28 00:27:11;;;;;;;;;;;;;;;12.02;76.71;99191.94;5079078;28;19928;-75
2022/09/28 00:29:37;;;;;;;;;;;;;;;12.11;76.10;99198.22;5083785;28;19928;-76
2022/09/28 00:32:05;;;;;;;;;;;;;;;11.89;76.39;99188.66;5083867;28;19925;-75
2022/09/28 00:34:33;;;;;;;;;;;;;;;12.09;76.48;99190.47;5071138;28;20449;-75
2022/09/28 00:37:00;;;;;;;;;;;;;;;12.25;75.74;99190.03;5065020;28;20433;-75
2022/09/28 00:39:27;;;;;;;;;;;;;;;11.77;77.50;99183.56;5061563;28;19959;-75
2022/09/28 00:41:53;;;;;;;;;;;;;;;11.92;77.32;99179.69;5062504;28;19928;-75
2022/09/28 00:44:31;;;;;;;;;;;;;;;12.07;76.81;99183.69;5064671;28;19929;-74
2022/09/28 00:46:58;;;;;;;;;;;;;;;12.23;76.19;99176.22;5078200;28;20350;-74
2022/09/28 00:49:28;;;;;;;;;;;;;;;11.98;76.95;99176.53;5083399;28;19928;-75
2022/09/28 00:51:56;;;;;;;;;;;;;;;11.90;77.37;99179.78;5084530;28;19978;-75
2022/09/28 00:54:22;;;;;;;;;;;;;;;11.74;78.05;99170.69;5074600;28;19960;-75
2022/09/28 00:56:49;;;;;;;;;;;;;;;11.79;77.86;99179.03;5067127;28;19924;-75
2022/09/28 00:59:15;;;;;;;;;;;;;;;11.55;79.41;99171.28;5065214;28;19967;-75
2022/09/28 01:01:42;;;;;;;;;;;;;;;11.59;78.99;99175.34;5067117;28;20426;-75
2022/09/28 01:04:08;;;;;;;;;;;;;;;11.91;77.79;99172.75;5064997;28;20418;-75
2022/09/28 01:06:35;;;;;;;;;;;;;;;12.35;75.54;99172.53;5065937;28;19931;-75
2022/09/28 01:09:04;;;;;;;;;;;;;;;12.19;75.92;99170.34;5066888;28;19997;-76
2022/09/28 01:11:31;;;;;;;;;;;;;;;12.18;76.60;99168.69;5065418;28;19928;-76
2022/09/28 01:13:58;;;;;;;;;;;;;;;11.87;77.57;99161.66;5065929;28;20299;-75
2022/09/28 01:16:28;;;;;;;;;;;;;;;11.84;77.68;99163.72;5064446;28;20376;-76
2022/09/28 01:18:59;;;;;;;;;;;;;;;11.81;78.27;99161.34;5065786;28;19928;-76
2022/09/28 01:21:25;;;;;;;;;;;;;;;11.74;78.81;99161.00;5066976;28;19928;-75
2022/09/28 01:24:10;;;;;;;;;;;;;;;11.85;78.13;99158.34;5065858;28;19924;-75
2022/09/28 01:26:44;;;;;;;;;;;;;;;11.97;77.80;99161.75;5065995;28;20602;-75
2022/09/28 01:29:15;;;;;;;;;;;;;;;12.09;76.30;99150.22;5064137;28;19932;-75
2022/09/28 01:31:45;;;;;;;;;;;;;;;11.85;77.94;99144.38;5065038;28;19929;-76
2022/09/28 01:34:15;;;;;;;;;;;;;;;12.12;76.25;99139.47;5068387;28;19981;-75
2022/09/28 01:36:43;;;;;;;;;;;;;;;11.46;80.05;99138.72;5064591;28;19939;-75
2022/09/28 01:39:12;;;;;;;;;;;;;;;11.70;79.48;99138.56;5065637;28;19935;-75
2022/09/28 01:41:41;;;;;;;;;;;;;;;11.46;80.15;99133.47;5057689;28;19929;-74
2022/09/28 01:44:10;;;;;;;;;;;;;;;11.52;80.82;99132.16;5067349;28;19974;-74
2022/09/28 01:46:37;;;;;;;;;;;;;;;11.79;79.35;99131.75;5066987;28;20069;-74
2022/09/28 01:49:06;;;;;;;;;;;;;;;11.69;79.94;99126.38;5084150;28;19928;-75
2022/09/28 01:51:36;;;;;;;;;;;;;;;12.21;77.20;99112.41;5086024;28;19928;-75
2022/09/28 01:54:05;;;;;;;;;;;;;;;12.69;74.39;99097.72;5084002;28;20668;-75
2022/09/28 01:56:34;;;;;;;;;;;;;;;12.32;75.37;99096.56;5077409;28;20622;-75
2022/09/28 01:59:03;;;;;;;;;;;;;;;11.54;79.20;99112.69;5065852;28;19928;-75
2022/09/28 02:01:34;;;;;;;;;;;;;;;11.17;80.78;99104.34;5067982;28;19978;-75
2022/09/28 02:04:02;;;;;;;;;;;;;;;11.24;80.70;99108.13;5065523;28;19924;-75
2022/09/28 02:06:32;;;;;;;;;;;;;;;11.23;80.49;99108.28;5067167;28;19970;-75
2022/09/28 02:08:59;;;;;;;;;;;;;;;11.14;80.40;99104.59;5065915;28;19974;-74
2022/09/28 02:11:26;;;;;;;;;;;;;;;11.02;80.71;99107.34;5067526;28;19982;-75
2022/09/28 02:13:54;;;;;;;;;;;;;;;11.34;79.54;99108.25;5067680;28;20352;-75
2022/09/28 02:16:22;;;;;;;;;;;;;;;11.47;77.99;99100.19;5064700;28;19929;-74
2022/09/28 02:18:50;;;;;;;;;;;;;;;11.29;77.86;99097.28;5057694;28;19974;-75
2022/09/28 02:21:22;;;;;;;;;;;;;;;11.36;78.28;99095.00;5066670;28;20304;-75
2022/09/28 02:23:51;;;;;;;;;;;;;;;11.28;78.72;99095.59;5064811;28;20011;-75
2022/09/28 02:26:21;;;;;;;;;;;;;;;10.55;82.05;99096.19;5066578;28;19925;-77
2022/09/28 02:28:47;;;;;;;;;;;;;;;10.56;83.56;99092.63;5067089;28;19950;-75
2022/09/28 02:31:13;;;;;;;;;;;;;;;10.64;83.05;99099.88;5065355;28;19956;-75
2022/09/28 02:33:41;;;;;;;;;;;;;;;10.43;85.30;99104.97;5066314;28;19924;-75
2022/09/28 02:36:09;;;;;;;;;;;;;;;10.71;84.07;99106.31;5066230;28;19993;-75
2022/09/28 02:38:36;;;;;;;;;;;;;;;10.97;82.86;99102.47;5065363;28;19925;-75
2022/09/28 02:41:04;;;;;;;;;;;;;;;11.01;82.64;99101.25;5064759;28;19929;-74
2022/09/28 02:43:33;;;;;;;;;;;;;;;11.44;80.85;99097.84;5068446;28;19924;-75
2022/09/28 02:46:06;;;;;;;;;;;;;;;11.19;81.93;99091.94;5065273;28;20304;-75
2022/09/28 02:48:40;;;;;;;;;;;;;;;11.60;80.12;99091.19;5065646;28;19982;-75
2022/09/28 02:51:19;;;;;;;;;;;;;;;11.64;79.25;99091.81;5063984;28;19924;-75
2022/09/28 02:54:01;;;;;;;;;;;;;;;11.95;77.34;99090.13;5066018;28;20383;-75
2022/09/28 02:56:35;;;;;;;;;;;;;;;11.38;79.67;99086.03;5065518;28;20354;-75
2022/09/28 02:59:06;;;;;;;;;;;;;;;11.10;81.07;99083.97;5066084;28;19932;-75
2022/09/28 03:01:35;;;;;;;;;;;;;;;11.11;80.65;99083.84;5055633;28;19924;-75
2022/09/28 03:04:07;;;;;;;;;;;;;;;10.72;82.33;99082.59;5065103;28;19925;-75
2022/09/28 03:06:39;;;;;;;;;;;;;;;10.97;80.41;99085.91;5066286;28;20244;-75
2022/09/28 03:09:12;;;;;;;;;;;;;;;11.28;79.30;99081.66;5084024;28;19932;-75
2022/09/28 03:11:42;;;;;;;;;;;;;;;11.11;80.09;99083.00;5069946;28;19924;-75
2022/09/28 03:14:09;;;;;;;;;;;;;;;11.36;79.53;99076.63;5063756;28;20482;-75
2022/09/28 03:16:36;;;;;;;;;;;;;;;11.55;77.74;99076.78;5073124;28;19924;-75
2022/09/28 03:19:02;;;;;;;;;;;;;;;11.54;77.33;99083.00;5071161;28;19974;-75
2022/09/28 03:21:28;;;;;;;;;;;;;;;11.09;78.63;99075.25;5064987;28;20334;-75
2022/09/28 03:23:54;;;;;;;;;;;;;;;10.57;82.19;99081.16;5067293;28;19924;-76
2022/09/28 03:26:22;;;;;;;;;;;;;;;10.90;79.79;99075.06;5065952;28;20158;-75
2022/09/28 03:28:48;;;;;;;;;;;;;;;10.92;79.91;99073.16;5064536;28;20277;-76
2022/09/28 03:31:14;;;;;;;;;;;;;;;10.94;78.66;99071.22;5065539;28;19924;-75
2022/09/28 03:33:41;;;;;;;;;;;;;;;10.68;79.98;99065.44;5065603;28;19924;-75
2022/09/28 03:36:08;;;;;;;;;;;;;;;10.88;78.09;99066.47;5063238;28;19946;-75
2022/09/28 03:38:34;;;;;;;;;;;;;;;10.02;82.33;99068.81;5065400;28;20398;-75
2022/09/28 03:41:01;;;;;;;;;;;;;;;9.69;85.28;99068.72;5064568;28;19924;-74
2022/09/28 03:43:29;;;;;;;;;;;;;;;9.50;85.08;99057.94;5064949;28;19929;-75
2022/09/28 03:45:57;;;;;;;;;;;;;;;9.94;82.81;99067.75;5066715;28;20308;-75
2022/09/28 03:48:24;;;;;;;;;;;;;;;9.93;83.47;99071.31;5066167;28;19961;-75
2022/09/28 03:50:52;;;;;;;;;;;;;;;9.61;85.40;99079.75;5064456;28;19929;-75
2022/09/28 03:53:18;;;;;;;;;;;;;;;9.55;84.62;99072.38;5065747;28;19924;-74
2022/09/28 03:55:45;;;;;;;;;;;;;;;9.56;85.72;99071.44;5064311;28;20027;-75
2022/09/28 03:58:11;;;;;;;;;;;;;;;9.52;85.19;99069.97;5064198;28;19928;-75
2022/09/28 04:00:38;;;;;;;;;;;;;;;9.37;86.32;99067.66;5064994;28;19975;-75
2022/09/28 04:03:05;;;;;;;;;;;;;;;9.39;86.33;99056.13;5080815;28;19925;-75
2022/09/28 04:05:31;;;;;;;;;;;;;;;9.23;86.70;99053.81;5055626;28;19998;-78
2022/09/28 04:07:57;;;;;;;;;;;;;;;9.39;86.05;99039.59;5065338;28;19932;-77
2022/09/28 04:10:24;;;;;;;;;;;;;;;9.28;86.00;99051.69;5071582;28;19924;-79
2022/09/28 04:12:53;;;;;;;;;;;;;;;9.28;85.26;99043.84;5065588;28;19924;-78
2022/09/28 04:15:20;;;;;;;;;;;;;;;9.61;83.18;99045.75;5064455;28;19924;-77
2022/09/28 04:17:48;;;;;;;;;;;;;;;9.19;84.88;99048.91;5064199;28;19925;-77
2022/09/28 04:20:14;;;;;;;;;;;;;;;9.16;85.42;99039.50;5066431;28;19924;-77
2022/09/28 04:22:41;;;;;;;;;;;;;;;9.12;85.72;99040.69;5065973;28;20359;-77
2022/09/28 04:25:07;;;;;;;;;;;;;;;8.87;86.96;99040.75;5065751;28;19960;-77
2022/09/28 04:30:17;;;;;;;;;;;;;;;9.28;84.65;99043.00;5061719;28;19932;-77
2022/09/28 04:32:45;;;;;;;;;;;;;;;8.95;86.16;99040.22;5064775;28;19974;-77
2022/09/28 04:35:13;;;;;;;;;;;;;;;8.70;87.27;99041.13;5058108;28;19930;-77
2022/09/28 04:37:39;;;;;;;;;;;;;;;8.87;87.07;99039.94;5062780;28;20369;-77
2022/09/28 04:40:06;;;;;;;;;;;;;;;8.92;87.23;99036.03;5065836;28;19950;-77
2022/09/28 04:42:32;;;;;;;;;;;;;;;9.27;84.21;99030.88;5063399;28;20291;-77
2022/09/28 04:44:59;;;;;;;;;;;;;;;9.01;84.90;99032.78;5064832;28;19925;-78
2022/09/28 04:47:26;;;;;;;;;;;;;;;8.99;85.99;99031.19;5064611;28;19925;-78
2022/09/28 04:49:52;;;;;;;;;;;;;;;8.84;87.22;99030.53;5062903;28;19978;-78
2022/09/28 04:52:20;;;;;;;;;;;;;;;9.04;86.55;99029.09;5063559;28;20423;-78
2022/09/28 04:54:46;;;;;;;;;;;;;;;9.46;84.90;99030.38;5081024;28;19985;-78
2022/09/28 04:57:13;;;;;;;;;;;;;;;9.89;82.86;99031.44;5081397;28;19924;-78
2022/09/28 04:59:39;;;;;;;;;;;;;;;10.32;79.51;99026.38;5065981;28;19925;-78
2022/09/28 05:02:05;;;;;;;;;;;;;;;10.13;80.64;99023.47;5065269;28;20372;-78
2022/09/28 05:04:31;;;;;;;;;;;;;;;9.91;80.96;99020.81;5066566;28;19924;-77
2022/09/28 05:06:58;;;;;;;;;;;;;;;9.99;81.02;99031.56;5058842;28;19924;-77
2022/09/28 05:09:25;;;;;;;;;;;;;;;9.67;82.59;99023.53;5072491;28;20032;-77
2022/09/28 05:11:52;;;;;;;;;;;;;;;9.33;84.41;99026.97;5073144;28;20292;-77
2022/09/28 05:14:18;;;;;;;;;;;;;;;9.50;83.97;99024.78;5068422;28;19924;-77
2022/09/28 05:16:45;;;;;;;;;;;;;;;9.66;83.28;99022.69;5067995;28;19935;-77
2022/09/28 05:19:12;;;;;;;;;;;;;;;10.14;80.79;99022.53;5062953;28;19935;-77
2022/09/28 05:21:38;;;;;;;;;;;;;;;10.40;79.81;99012.69;5076296;28;19932;-77
2022/09/28 05:24:06;;;;;;;;;;;;;;;10.59;79.57;99010.28;5084698;28;20363;-77
2022/09/28 05:26:34;;;;;;;;;;;;;;;10.21;80.73;99002.78;5049017;28;19925;-76
2022/09/28 05:29:00;;;;;;;;;;;;;;;10.17;81.66;99011.84;5060994;28;19932;-77
2022/09/28 05:31:26;;;;;;;;;;;;;;;9.44;84.15;99014.78;5076480;28;19932;-77
2022/09/28 05:33:53;;;;;;;;;;;;;;;9.20;87.08;99004.31;5070214;28;19931;-77
2022/09/28 05:36:19;;;;;;;;;;;;;;;9.42;85.90;99010.63;5064851;28;20017;-77
2022/09/28 05:38:46;;;;;;;;;;;;;;;10.13;82.73;99010.38;5066211;28;20050;-77
2022/09/28 05:41:12;;;;;;;;;;;;;;;9.81;83.79;99006.78;5074333;28;19970;-77
2022/09/28 05:43:40;;;;;;;;;;;;;;;9.98;83.64;99001.91;5058289;28;19925;-77
2022/09/28 05:46:07;;;;;;;;;;;;;;;10.31;82.34;99006.34;5077585;28;19931;-77
2022/09/28 05:48:33;;;;;;;;;;;;;;;10.56;81.15;98998.25;5066746;28;19924;-77
2022/09/28 05:51:00;;;;;;;;;;;;;;;10.91;79.67;99002.47;5068522;28;19954;-78
2022/09/28 05:53:26;;;;;;;;;;;;;;;10.69;79.32;98993.69;5084123;28;19974;-78
2022/09/28 05:55:53;;;;;;;;;;;;;;;10.52;80.64;99004.69;5086491;28;19936;-78
2022/09/28 05:58:19;;;;;;;;;;;;;;;10.69;78.85;98996.31;5074168;28;19950;-78
2022/09/28 06:00:47;;;;;;;;;;;;;;;10.86;78.69;99002.84;5088330;28;20264;-77
2022/09/28 06:03:14;;;;;;;;;;;;;;;10.35;80.38;98999.94;5071592;28;19924;-77
2022/09/28 06:05:40;;;;;;;;;;;;;;;10.30;81.51;98999.47;5071066;28;19924;-77
2022/09/28 06:08:09;;;;;;;;;;;;;;;9.66;84.27;98999.13;5067904;28;20332;-77
2022/09/28 06:10:35;;;;;;;;;;;;;;;10.09;83.58;99003.69;5068124;28;19948;-77
2022/09/28 06:13:01;;;;;;;;;;;;;;;10.54;81.98;98997.53;5067098;28;19974;-77
2022/09/28 06:15:29;;;;;;;;;;;;;;;10.47;81.36;98993.72;5067300;28;20189;-77
2022/09/28 06:17:57;;;;;;;;;;;;;;;10.50;81.38;99003.13;5081642;28;19923;-78
2022/09/28 06:20:23;;;;;;;;;;;;;;;10.38;81.39;99001.50;5087589;28;20382;-78
2022/09/28 06:22:50;;;;;;;;;;;;;;;9.54;85.13;98993.97;5069704;28;19954;-76
2022/09/28 06:25:17;;;;;;;;;;;;;;;9.90;85.16;99000.84;5064428;28;19925;-76
2022/09/28 06:27:43;;;;;;;;;;;;;;;10.05;83.48;99000.50;5075817;28;19927;-76
2022/09/28 06:30:11;;;;;;;;;;;;;;;10.38;82.30;98996.25;5085443;28;21240;-76
2022/09/28 06:32:37;;;;;;;;;;;;;;;10.63;81.33;99002.06;5068390;28;19932;-76
2022/09/28 06:35:07;;;;;;;;;;;;;;;10.32;82.35;98991.47;5071163;28;19928;-78
2022/09/28 06:37:34;;;;;;;;;;;;;;;9.99;84.17;98998.34;5067145;28;20435;-78
2022/09/28 06:40:01;;;;;;;;;;;;;;;10.64;81.69;99001.09;5065482;28;20292;-78
2022/09/28 06:42:27;;;;;;;;;;;;;;;10.04;83.76;99001.47;5067286;28;20025;-79
2022/09/28 06:44:53;;;;;;;;;;;;;;;10.20;83.65;99001.13;5071834;28;19933;-76
2022/09/28 06:47:19;;;;;;;;;;;;;;;10.40;83.62;98997.78;5065632;28;19925;-75
2022/09/28 06:49:46;;;;;;;;;;;;;;;10.64;81.99;99005.53;5066238;28;20311;-75
2022/09/28 06:52:14;;;;;;;;;;;;;;;11.00;80.83;99006.97;5067142;28;20009;-78
2022/09/28 06:54:40;;;;;;;;;;;;;;;10.41;82.84;98999.47;5081258;28;19928;-80
2022/09/28 06:57:06;;;;;;;;;;;;;;;10.86;81.51;99002.84;5067506;28;19928;-80
2022/09/28 06:59:33;;;;;;;;;;;;;;;10.81;82.23;99004.16;5066146;28;20342;-81
2022/09/28 07:01:59;;;;;;;;;;;;;;;10.47;82.55;99011.25;5064989;28;19924;-80
2022/09/28 07:04:26;;;;;;;;;;;;;;;10.73;83.03;99005.63;5066298;28;20351;-80
2022/09/28 07:06:52;;;;;;;;;;;;;;;10.98;81.86;99007.09;5072928;28;19987;-80
2022/09/28 07:09:20;;;;;;;;;;;;;;;10.57;82.52;99005.16;5066447;28;19931;-80
2022/09/28 07:11:46;;;;;;;;;;;;;;;10.89;80.76;99002.59;5067872;28;19925;-80
2022/09/28 07:14:12;;;;;;;;;;;;;;;10.49;82.73;99017.22;5069415;28;19935;-79
2022/09/28 07:16:39;;;;;;;;;;;;;;;10.02;85.10;99018.22;5081737;28;19928;-79
2022/09/28 07:19:05;;;;;;;;;;;;;;;10.23;85.11;99014.00;5085592;28;20381;-78
2022/09/28 07:21:31;;;;;;;;;;;;;;;10.63;82.76;99020.41;5086330;28;19950;-76
2022/09/28 07:23:58;;;;;;;;;;;;;;;10.44;83.66;99012.31;5077773;28;19990;-76
2022/09/28 07:26:26;;;;;;;;;;;;;;;10.34;85.76;99021.88;5079755;28;19924;-76
2022/09/28 07:28:54;;;;;;;;;;;;;;;10.90;82.51;99014.75;5073581;28;19990;-75
2022/09/28 07:31:21;;;;;;;;;;;;;;;10.29;84.33;99024.00;5065012;28;19974;-75
2022/09/28 07:33:50;;;;;;;;;;;;;;;10.47;84.32;99019.94;5080541;28;19928;-75
2022/09/28 07:36:16;;;;;;;;;;;;;;;10.68;83.80;99023.47;5065609;28;19956;-75
2022/09/28 07:38:42;;;;;;;;;;;;;;;10.58;84.36;99026.97;5062975;28;20415;-75
2022/09/28 07:41:10;;;;;;;;;;;;;;;10.13;85.96;99031.31;5065686;28;20479;-75
2022/09/28 07:43:38;;;;;;;;;;;;;;;10.57;85.12;99018.25;5070153;28;19960;-75
2022/09/28 07:46:10;;;;;;;;;;;;;;;11.24;81.95;99026.81;5078816;28;20031;-74
2022/09/28 07:48:37;;;;;;;;;;;;;;;10.82;82.33;99021.56;5086320;28;19967;-74
2022/09/28 07:51:03;;;;;;;;;;;;;;;11.31;81.04;99032.38;5079562;28;19982;-74
2022/09/28 07:53:30;;;;;;;;;;;;;;;11.20;81.08;99025.38;5064130;28;19924;-74
2022/09/28 07:56:05;;;;;;;;;;;;;;;11.03;83.36;99027.72;5065750;28;19924;-75
2022/09/28 07:58:32;;;;;;;;;;;;;;;11.67;80.60;99029.38;5046141;28;19928;-75
2022/09/28 08:01:02;;;;;;;;;;;;;;;11.61;81.39;99029.03;5059263;28;19930;-75
2022/09/28 08:03:28;;;;;;;;;;;;;;;11.43;81.27;99041.03;5046148;28;19994;-75
2022/09/28 08:05:57;;;;;;;;;;;;;;;11.20;82.29;99035.03;5065612;28;19947;-75
2022/09/28 08:08:23;;;;;;;;;;;;;;;11.57;79.86;99033.69;5067035;28;20341;-75
2022/09/28 08:10:51;;;;;;;;;;;;;;;11.71;79.60;99033.41;5066242;28;20012;-75
2022/09/28 08:13:17;;;;;;;;;;;;;;;11.34;82.33;99037.41;5060886;28;19928;-75
2022/09/28 08:15:48;;;;;;;;;;;;;;;11.03;82.81;99038.19;5072746;28;19924;-75
2022/09/28 08:18:16;;;;;;;;;;;;;;;11.00;84.30;99035.84;5084719;28;20455;-75
2022/09/28 08:23:26;;;;;;;;;;;;;;;10.79;84.38;99035.75;5062624;28;19930;-76
2022/09/28 08:25:52;;;;;;;;;;;;;;;11.05;84.66;99037.13;5085230;28;20498;-77
2022/09/28 08:28:19;;;;;;;;;;;;;;;11.67;81.85;99042.50;5083838;28;20012;-74
2022/09/28 08:30:46;;;;;;;;;;;;;;;11.29;82.47;99042.19;5066807;28;19928;-74
2022/09/28 08:33:12;;;;;;;;;;;;;;;11.62;82.03;99049.06;5079956;28;19933;-73
2022/09/28 08:35:40;;;;;;;;;;;;;;;11.80;80.94;99042.31;5064465;28;20534;-73
2022/09/28 08:38:07;;;;;;;;;;;;;;;10.95;83.28;99045.84;5083633;28;20352;-73
2022/09/28 08:40:37;;;;;;;;;;;;;;;11.46;83.54;99039.00;5070847;28;19925;-74
2022/09/28 08:43:06;;;;;;;;;;;;;;;11.74;80.91;99047.25;5068581;28;19933;-74
2022/09/28 08:45:34;;;;;;;;;;;;;;;11.87;82.09;99055.78;5064237;28;20404;-74
2022/09/28 08:50:51;;;;;;;;;;;;;;;11.42;83.54;99048.06;5063911;28;19984;-74
2022/09/28 08:53:26;;;;;;;;;;;;;;;12.11;82.04;99044.06;5066677;28;19963;-73
2022/09/28 08:55:53;;;;;;;;;;;;;;;12.11;80.70;99049.31;5064726;28;19928;-78
2022/09/28 08:58:22;;;;;;;;;;;;;;;12.49;79.97;99046.00;5084338;28;20398;-77
2022/09/28 09:00:49;;;;;;;;;;;;;;;12.29;78.74;99049.53;5062825;28;19929;-76
2022/09/28 09:03:17;;;;;;;;;;;;;;;11.99;80.42;99057.38;5063851;28;19924;-76
2022/09/28 09:05:50;;;;;;;;;;;;;;;12.22;77.78;99056.28;5064443;28;20319;-76
2022/09/28 09:08:34;;;;;;;;;;;;;;;12.50;78.18;99054.75;5061621;28;20342;-77
2022/09/28 09:11:08;;;;;;;;;;;;;;;13.12;73.04;99058.00;5038531;28;19924;-75
2022/09/28 09:13:49;;;;;;;;;;;;;;;12.48;75.89;99061.94;5073383;28;19978;-75
2022/09/28 09:16:21;;;;;;;;;;;;;;;12.88;75.53;99070.66;5055728;28;19929;-75
2022/09/28 09:18:50;;;;;;;;;;;;;;;12.75;76.56;99066.63;5068977;28;19937;-76
2022/09/28 09:21:27;;;;;;;;;;;;;;;12.79;77.04;99073.25;5068886;28;19928;-74
2022/09/28 09:23:54;;;;;;;;;;;;;;;13.06;76.39;99074.31;5067852;28;20453;-75
2022/09/28 09:26:32;;;;;;;;;;;;;;;13.14;74.75;99073.66;5068054;28;20038;-75
2022/09/28 09:29:10;;;;;;;;;;;;;;;13.36;73.59;99068.16;5076603;28;19990;-76
2022/09/28 09:31:43;;;;;;;;;;;;;;;13.41;74.42;99073.84;5083935;28;20009;-76
2022/09/28 09:34:23;;;;;;;;;;;;;;;13.28;75.51;99070.63;5068292;28;19924;-75
2022/09/28 09:37:01;;;;;;;;;;;;;;;13.46;75.37;99076.88;5058487;28;19963;-75
2022/09/28 09:39:35;;;;;;;;;;;;;;;13.63;72.28;99075.38;5068516;28;19928;-75
2022/09/28 09:42:10;;;;;;;;;;;;;;;13.02;74.34;99078.19;5066038;28;19969;-75
2022/09/28 09:44:44;;;;;;;;;;;;;;;13.07;74.94;99080.41;5076073;28;19978;-75
2022/09/28 09:47:13;;;;;;;;;;;;;;;12.73;74.99;99076.41;5068712;28;19948;-75
2022/09/28 09:49:42;;;;;;;;;;;;;;;12.58;76.69;99089.94;5066622;28;19924;-76
2022/09/28 09:52:13;;;;;;;;;;;;;;;12.95;74.22;99084.09;5066565;28;20387;-75
2022/09/28 09:54:42;;;;;;;;;;;;;;;12.95;73.52;99082.31;5068375;28;20361;-75
2022/09/28 09:57:13;;;;;;;;;;;;;;;13.05;73.11;99084.97;5066287;28;20334;-75
2022/09/28 09:59:41;;;;;;;;;;;;;;;12.93;75.21;99086.91;5066056;28;20350;-75
2022/09/28 10:02:14;;;;;;;;;;;;;;;12.77;77.05;99086.56;5067065;28;19925;-75
2022/09/28 10:04:42;;;;;;;;;;;;;;;12.51;78.40;99094.06;5065638;28;20364;-75
2022/09/28 10:07:09;;;;;;;;;;;;;;;12.55;76.60;99095.47;5067173;28;19928;-75
2022/09/28 10:09:38;;;;;;;;;;;;;;;12.57;76.44;99088.25;5067092;28;20437;-75
2022/09/28 10:12:04;;;;;;;;;;;;;;;12.42;77.98;99094.00;5065680;28;20415;-75
2022/09/28 10:14:32;;;;;;;;;;;;;;;12.63;77.32;99095.63;5066462;28;19928;-75
2022/09/28 10:16:58;;;;;;;;;;;;;;;13.00;76.84;99100.34;5070504;28;19992;-75
2022/09/28 10:19:28;;;;;;;;;;;;;;;12.94;77.54;99095.59;5065771;28;20461;-75
2022/09/28 10:21:56;;;;;;;;;;;;;;;12.91;77.19;99090.59;5067138;28;19974;-75
2022/09/28 10:24:27;;;;;;;;;;;;;;;12.45;77.64;99102.44;5064907;28;20007;-75
2022/09/28 10:26:54;;;;;;;;;;;;;;;12.36;78.80;99097.97;5064875;28;19929;-74
2022/09/28 10:29:22;;;;;;;;;;;;;;;12.76;77.01;99097.19;5065341;28;19982;-74
2022/09/28 10:31:51;;;;;;;;;;;;;;;12.15;80.27;99107.69;5065975;28;20502;-74
2022/09/28 10:34:18;;;;;;;;;;;;;;;12.91;77.56;99098.50;5065534;28;19924;-74
2022/09/28 10:36:54;;;;;;;;;;;;;;;12.96;77.65;99099.78;5065562;28;19928;-74
2022/09/28 10:39:32;;;;;;;;;;;;;;;13.24;75.59;99105.25;5065239;28;19932;-75
2022/09/28 10:42:02;;;;;;;;;;;;;;;13.60;73.57;99099.34;5067538;28;19944;-75
2022/09/28 10:44:30;;;;;;;;;;;;;;;13.42;73.42;99101.00;5065303;28;20019;-75
2022/09/28 10:46:59;;;;;;;;;;;;;;;13.46;72.82;99100.59;5064616;28;19939;-75
2022/09/28 10:49:25;;;;;;;;;;;;;;;13.06;75.46;99102.41;5066332;28;20492;-75
2022/09/28 10:51:53;;;;;;;;;;;;;;;12.96;74.70;99093.69;5067379;28;19925;-75
2022/09/28 10:54:20;;;;;;;;;;;;;;;12.93;77.31;99099.22;5064359;28;19935;-75
2022/09/28 10:56:47;;;;;;;;;;;;;;;13.25;76.43;99099.03;5065731;28;20307;-75
2022/09/28 10:59:24;;;;;;;;;;;;;;;13.44;77.19;99105.16;5065737;28;19960;-76
2022/09/28 11:01:53;;;;;;;;;;;;;;;13.39;74.99;99107.38;5067180;28;20368;-75
2022/09/28 11:04:23;;;;;;;;;;;;;;;13.35;73.47;99099.88;5066598;28;19955;-75
2022/09/28 11:06:50;;;;;;;;;;;;;;;12.54;75.59;99109.56;5058541;28;19982;-75
2022/09/28 11:09:26;;;;;;;;;;;;;;;12.87;74.54;99104.97;5065652;28;20529;-76
2022/09/28 11:11:52;;;;;;;;;;;;;;;13.27;74.50;99105.81;5060836;28;19924;-76
2022/09/28 11:14:24;;;;;;;;;;;;;;;13.38;73.07;99110.13;5066069;28;19932;-76
2022/09/28 11:17:13;;;;;;;;;;;;;;;13.73;71.01;99106.97;5066039;28;20384;-76
2022/09/28 11:19:41;;;;;;;;;;;;;;;13.26;71.22;99112.06;5066059;28;19935;-76
2022/09/28 11:22:20;;;;;;;;;;;;;;;12.58;74.45;99118.84;5054748;28;19925;-78
2022/09/28 11:24:46;;;;;;;;;;;;;;;12.06;77.23;99114.53;5060969;28;19924;-77
2022/09/28 11:27:19;;;;;;;;;;;;;;;12.68;76.60;99108.38;5085416;28;20322;-77
2022/09/28 11:29:53;;;;;;;;;;;;;;;13.21;75.42;99103.75;5074088;28;20449;-76
2022/09/28 11:32:20;;;;;;;;;;;;;;;13.17;75.38;99115.50;5064487;28;20552;-76
2022/09/28 11:34:51;;;;;;;;;;;;;;;12.58;76.25;99123.28;5066889;28;20458;-76
2022/09/28 11:37:35;;;;;;;;;;;;;;;12.05;77.41;99122.53;5064127;28;19974;-76
2022/09/28 11:40:07;;;;;;;;;;;;;;;11.92;78.49;99127.16;5063921;28;20260;-75
2022/09/28 11:42:38;;;;;;;;;;;;;;;11.48;77.71;99118.47;5056724;28;19924;-75
2022/09/28 11:45:16;;;;;;;;;;;;;;;12.33;75.95;99123.69;5065895;28;19928;-75
2022/09/28 11:47:49;;;;;;;;;;;;;;;12.25;77.02;99124.34;5064595;28;20269;-75
2022/09/28 11:50:26;;;;;;;;;;;;;;;12.35;78.72;99116.50;5064951;28;19934;-75
2022/09/28 11:52:56;;;;;;;;;;;;;;;12.29;77.79;99122.28;5063371;28;20350;-75
2022/09/28 11:55:27;;;;;;;;;;;;;;;13.04;74.61;99117.53;5066521;28;19928;-76
2022/09/28 11:57:56;;;;;;;;;;;;;;;13.27;73.72;99124.25;5057979;28;19931;-76
2022/09/28 12:00:23;;;;;;;;;;;;;;;12.98;75.91;99123.31;5063860;28;19925;-76
2022/09/28 12:02:52;;;;;;;;;;;;;;;13.46;71.62;99123.44;5064656;28;19929;-76
2022/09/28 12:05:22;;;;;;;;;;;;;;;12.96;71.77;99117.34;5066325;28;19924;-76
2022/09/28 12:07:53;;;;;;;;;;;;;;;13.57;73.34;99129.44;5064946;28;20486;-76
2022/09/28 12:10:24;;;;;;;;;;;;;;;13.49;72.88;99118.75;5062274;28;19928;-77
2022/09/28 12:12:54;;;;;;;;;;;;;;;12.56;69.54;99123.41;5061518;28;20323;-76
2022/09/28 12:15:23;;;;;;;;;;;;;;;12.86;71.41;99127.81;5065331;28;20334;-76
2022/09/28 12:17:52;;;;;;;;;;;;;;;12.87;73.02;99120.75;5065094;28;19978;-76
2022/09/28 12:20:21;;;;;;;;;;;;;;;13.31;72.32;99122.16;5062921;28;19997;-75
2022/09/28 12:22:51;;;;;;;;;;;;;;;13.52;72.99;99120.28;5045116;28;19929;-75
2022/09/28 12:25:22;;;;;;;;;;;;;;;13.97;73.02;99121.38;5045380;28;19955;-75
2022/09/28 12:27:51;;;;;;;;;;;;;;;14.01;67.94;99121.94;5044953;28;19925;-76
2022/09/28 12:30:19;;;;;;;;;;;;;;;13.02;70.76;99120.28;5049649;28;19928;-76
2022/09/28 12:32:48;;;;;;;;;;;;;;;13.11;70.17;99116.06;5064011;28;19924;-76
2022/09/28 12:35:15;;;;;;;;;;;;;;;13.67;72.55;99115.44;5064371;28;19973;-76
2022/09/28 12:37:49;;;;;;;;;;;;;;;13.94;68.88;99121.66;5064649;28;20314;-76
2022/09/28 12:40:30;;;;;;;;;;;;;;;14.25;68.21;99122.34;5062985;28;19951;-77
2022/09/28 12:43:05;;;;;;;;;;;;;;;13.92;70.92;99128.06;5063947;28;19924;-77
2022/09/28 12:45:39;;;;;;;;;;;;;;;13.86;68.60;99120.69;5070060;28;19950;-78
2022/09/28 12:48:16;;;;;;;;;;;;;;;13.19;71.03;99128.53;5076848;28;20384;-77
2022/09/28 12:50:49;;;;;;;;;;;;;;;13.02;72.51;99127.34;5082990;28;19924;-77
2022/09/28 12:53:25;;;;;;;;;;;;;;;13.31;71.05;99130.06;5068668;28;19928;-77
2022/09/28 12:55:59;;;;;;;;;;;;;;;13.28;70.70;99136.44;5067558;28;20441;-77
2022/09/28 12:58:35;;;;;;;;;;;;;;;13.39;72.71;99138.13;5076777;28;19925;-77
2022/09/28 13:01:08;;;;;;;;;;;;;;;13.28;72.37;99141.72;5067834;28;20332;-77
2022/09/28 13:03:57;;;;;;;;;;;;;;;13.50;71.84;99138.00;5069268;28;19933;-76